CheckWX is a tool to help pilots better visualize weather data.  It is not intended as a substitute for an official pre-flight weather briefing.

17:57:14 UTC

BGJN METAR
Ilulissat Airport
Ilulissat, Greenland
Current

1 hour ago

BGJN 211650Z 32004KT 240V010 9999 FEW180 12/04 Q1010
Observed
Jul-21 @ 16:50 UTC
Wind
  • 320° at 4 KTS
Visibility
10,000+ meters
Flight Rules
VFR
Cloud Levels
  • Few at 18,000' AGL
Temperature
12°C / 54°F
Dewpoint
C / 39°F
Humidity
58%
Altimeter
29.82" Hg
Pressure
1009.92 hPa
Previous

2 hours ago

BGJN 211550Z 33004KT 9999 FEW180 11/03 Q1010
Observed
Jul-21 @ 15:50 UTC
Wind
  • 330° at 4 KTS
Visibility
10,000+ meters
Flight Rules
VFR
Cloud Levels
  • Few at 18,000' AGL
Temperature
11°C / 52°F
Dewpoint
C / 37°F
Humidity
58%
Altimeter
29.82" Hg
Pressure
1009.92 hPa
Previous

4 hours ago

BGJN 211350Z 34005KT 310V020 9999 FEW180 10/03 Q1010
Observed
Jul-21 @ 13:50 UTC
Wind
  • 340° at 5 KTS
Visibility
10,000+ meters
Flight Rules
VFR
Cloud Levels
  • Few at 18,000' AGL
Temperature
10°C / 50°F
Dewpoint
C / 37°F
Humidity
62%
Altimeter
29.82" Hg
Pressure
1009.92 hPa